sensor_id;sensor_type;location;lat;lon;timestamp;temperature;humidity
38464;DHT22;24243;51.956;5.902;2023-04-25T00:02:18;19.30;50.80
38464;DHT22;24243;51.956;5.902;2023-04-25T00:04:45;19.30;50.80
38464;DHT22;24243;51.956;5.902;2023-04-25T00:07:11;19.30;50.80
38464;DHT22;24243;51.956;5.902;2023-04-25T00:09:38;19.20;50.80
38464;DHT22;24243;51.956;5.902;2023-04-25T00:12:04;19.30;50.80
38464;DHT22;24243;51.956;5.902;2023-04-25T00:14:29;19.20;50.80
38464;DHT22;24243;51.956;5.902;2023-04-25T00:16:55;19.20;50.80
38464;DHT22;24243;51.956;5.902;2023-04-25T00:19:21;19.20;50.80
38464;DHT22;24243;51.956;5.902;2023-04-25T00:21:47;19.20;50.80
38464;DHT22;24243;51.956;5.902;2023-04-25T00:24:13;19.20;50.80
38464;DHT22;24243;51.956;5.902;2023-04-25T00:26:38;19.20;50.80
38464;DHT22;24243;51.956;5.902;2023-04-25T00:29:04;19.20;50.80
38464;DHT22;24243;51.956;5.902;2023-04-25T00:31:30;19.20;50.80
38464;DHT22;24243;51.956;5.902;2023-04-25T00:33:56;19.20;50.80
38464;DHT22;24243;51.956;5.902;2023-04-25T00:36:22;19.20;50.80
38464;DHT22;24243;51.956;5.902;2023-04-25T00:38:47;19.20;50.80
38464;DHT22;24243;51.956;5.902;2023-04-25T00:41:13;19.20;51.00
38464;DHT22;24243;51.956;5.902;2023-04-25T00:43:40;19.20;50.80
38464;DHT22;24243;51.956;5.902;2023-04-25T00:46:06;19.20;50.80
38464;DHT22;24243;51.956;5.902;2023-04-25T00:48:31;19.10;50.80
38464;DHT22;24243;51.956;5.902;2023-04-25T00:50:58;19.20;50.80
38464;DHT22;24243;51.956;5.902;2023-04-25T00:53:25;19.20;50.80
38464;DHT22;24243;51.956;5.902;2023-04-25T00:55:52;19.10;50.80
38464;DHT22;24243;51.956;5.902;2023-04-25T00:58:19;19.10;50.80
38464;DHT22;24243;51.956;5.902;2023-04-25T01:00:46;19.10;50.80
38464;DHT22;24243;51.956;5.902;2023-04-25T01:03:13;19.10;50.80
38464;DHT22;24243;51.956;5.902;2023-04-25T01:05:40;19.10;50.80
38464;DHT22;24243;51.956;5.902;2023-04-25T01:08:07;19.10;50.80
38464;DHT22;24243;51.956;5.902;2023-04-25T01:10:33;19.10;50.80
38464;DHT22;24243;51.956;5.902;2023-04-25T01:12:58;19.10;50.80
38464;DHT22;24243;51.956;5.902;2023-04-25T01:15:24;19.10;50.80
38464;DHT22;24243;51.956;5.902;2023-04-25T01:17:50;19.10;50.80
38464;DHT22;24243;51.956;5.902;2023-04-25T01:20:16;19.10;51.50
38464;DHT22;24243;51.956;5.902;2023-04-25T01:22:42;19.10;50.80
38464;DHT22;24243;51.956;5.902;2023-04-25T01:25:09;19.10;50.80
38464;DHT22;24243;51.956;5.902;2023-04-25T01:27:36;19.10;50.80
38464;DHT22;24243;51.956;5.902;2023-04-25T01:30:03;19.10;50.80
38464;DHT22;24243;51.956;5.902;2023-04-25T01:32:30;19.10;50.90
38464;DHT22;24243;51.956;5.902;2023-04-25T01:35:10;19.10;50.80
38464;DHT22;24243;51.956;5.902;2023-04-25T01:37:40;19.10;50.90
38464;DHT22;24243;51.956;5.902;2023-04-25T01:40:07;19.10;50.90
38464;DHT22;24243;51.956;5.902;2023-04-25T01:42:35;19.00;50.80
38464;DHT22;24243;51.956;5.902;2023-04-25T01:45:01;19.00;50.80
38464;DHT22;24243;51.956;5.902;2023-04-25T01:47:27;19.00;50.80
38464;DHT22;24243;51.956;5.902;2023-04-25T01:49:53;19.00;50.80
38464;DHT22;24243;51.956;5.902;2023-04-25T01:52:18;19.00;50.80
38464;DHT22;24243;51.956;5.902;2023-04-25T01:54:45;19.00;50.80
38464;DHT22;24243;51.956;5.902;2023-04-25T01:57:11;19.00;50.80
38464;DHT22;24243;51.956;5.902;2023-04-25T01:59:37;19.00;50.80
38464;DHT22;24243;51.956;5.902;2023-04-25T02:02:03;19.00;50.80
38464;DHT22;24243;51.956;5.902;2023-04-25T02:04:30;19.00;50.80
38464;DHT22;24243;51.956;5.902;2023-04-25T02:06:55;19.00;50.80
38464;DHT22;24243;51.956;5.902;2023-04-25T02:09:21;19.00;50.90
38464;DHT22;24243;51.956;5.902;2023-04-25T02:11:47;19.00;50.90
38464;DHT22;24243;51.956;5.902;2023-04-25T02:14:13;19.00;50.90
38464;DHT22;24243;51.956;5.902;2023-04-25T02:16:39;19.00;50.80
38464;DHT22;24243;51.956;5.902;2023-04-25T02:19:05;19.00;50.80
38464;DHT22;24243;51.956;5.902;2023-04-25T02:21:31;19.00;50.90
38464;DHT22;24243;51.956;5.902;2023-04-25T02:23:57;19.00;50.90
38464;DHT22;24243;51.956;5.902;2023-04-25T02:26:23;19.00;50.90
38464;DHT22;24243;51.956;5.902;2023-04-25T02:28:50;19.00;50.80
38464;DHT22;24243;51.956;5.902;2023-04-25T02:31:16;19.00;51.50
38464;DHT22;24243;51.956;5.902;2023-04-25T02:33:42;19.00;50.90
38464;DHT22;24243;51.956;5.902;2023-04-25T02:36:08;18.90;50.80
38464;DHT22;24243;51.956;5.902;2023-04-25T02:38:34;19.00;50.80
38464;DHT22;24243;51.956;5.902;2023-04-25T02:40:59;18.90;50.80
38464;DHT22;24243;51.956;5.902;2023-04-25T02:43:25;18.90;50.80
38464;DHT22;24243;51.956;5.902;2023-04-25T02:45:51;18.90;50.80
38464;DHT22;24243;51.956;5.902;2023-04-25T02:48:17;18.90;50.80
38464;DHT22;24243;51.956;5.902;2023-04-25T02:50:43;18.90;50.80
38464;DHT22;24243;51.956;5.902;2023-04-25T02:53:08;18.90;50.80
38464;DHT22;24243;51.956;5.902;2023-04-25T02:55:34;18.90;50.80
38464;DHT22;24243;51.956;5.902;2023-04-25T02:58:00;18.90;50.80
38464;DHT22;24243;51.956;5.902;2023-04-25T03:00:26;18.90;50.90
38464;DHT22;24243;51.956;5.902;2023-04-25T03:02:51;18.90;50.80
38464;DHT22;24243;51.956;5.902;2023-04-25T03:05:17;18.90;50.80
38464;DHT22;24243;51.956;5.902;2023-04-25T03:07:43;18.90;50.80
38464;DHT22;24243;51.956;5.902;2023-04-25T03:10:10;18.90;50.80
38464;DHT22;24243;51.956;5.902;2023-04-25T03:12:36;18.90;50.80
38464;DHT22;24243;51.956;5.902;2023-04-25T03:15:02;18.90;50.90
38464;DHT22;24243;51.956;5.902;2023-04-25T03:17:28;18.90;50.90
38464;DHT22;24243;51.956;5.902;2023-04-25T03:19:54;18.90;50.90
38464;DHT22;24243;51.956;5.902;2023-04-25T03:22:20;18.90;50.90
38464;DHT22;24243;51.956;5.902;2023-04-25T03:24:46;18.90;50.90
38464;DHT22;24243;51.956;5.902;2023-04-25T03:27:12;18.90;50.90
38464;DHT22;24243;51.956;5.902;2023-04-25T03:29:38;18.90;50.80
38464;DHT22;24243;51.956;5.902;2023-04-25T03:32:04;18.90;50.90
38464;DHT22;24243;51.956;5.902;2023-04-25T03:34:30;18.90;50.80
38464;DHT22;24243;51.956;5.902;2023-04-25T03:36:56;18.80;50.80
38464;DHT22;24243;51.956;5.902;2023-04-25T03:39:21;18.80;50.80
38464;DHT22;24243;51.956;5.902;2023-04-25T03:41:47;18.80;51.40
38464;DHT22;24243;51.956;5.902;2023-04-25T03:44:13;18.80;51.00
38464;DHT22;24243;51.956;5.902;2023-04-25T03:46:39;18.80;50.80
38464;DHT22;24243;51.956;5.902;2023-04-25T03:49:05;18.80;50.80
38464;DHT22;24243;51.956;5.902;2023-04-25T03:51:31;18.80;50.80
38464;DHT22;24243;51.956;5.902;2023-04-25T03:53:57;18.80;50.80
38464;DHT22;24243;51.956;5.902;2023-04-25T03:56:22;18.90;50.80
38464;DHT22;24243;51.956;5.902;2023-04-25T03:58:48;18.80;50.80
38464;DHT22;24243;51.956;5.902;2023-04-25T04:01:14;18.80;50.70
38464;DHT22;24243;51.956;5.902;2023-04-25T04:03:39;18.80;50.70
38464;DHT22;24243;51.956;5.902;2023-04-25T04:06:07;18.80;50.70
38464;DHT22;24243;51.956;5.902;2023-04-25T04:08:33;18.80;50.80
38464;DHT22;24243;51.956;5.902;2023-04-25T04:10:59;18.80;50.80
38464;DHT22;24243;51.956;5.902;2023-04-25T04:13:28;18.80;50.80
38464;DHT22;24243;51.956;5.902;2023-04-25T04:15:55;18.70;50.70
38464;DHT22;24243;51.956;5.902;2023-04-25T04:18:21;18.70;50.80
38464;DHT22;24243;51.956;5.902;2023-04-25T04:20:47;18.70;50.80
38464;DHT22;24243;51.956;5.902;2023-04-25T04:23:13;18.70;50.80
38464;DHT22;24243;51.956;5.902;2023-04-25T04:25:39;18.70;50.80
38464;DHT22;24243;51.956;5.902;2023-04-25T04:28:05;18.70;50.80
38464;DHT22;24243;51.956;5.902;2023-04-25T04:30:31;18.70;50.80
38464;DHT22;24243;51.956;5.902;2023-04-25T04:32:58;18.70;50.80
38464;DHT22;24243;51.956;5.902;2023-04-25T04:35:26;18.70;50.80
38464;DHT22;24243;51.956;5.902;2023-04-25T04:37:52;18.70;50.80
38464;DHT22;24243;51.956;5.902;2023-04-25T04:40:18;18.70;50.80
38464;DHT22;24243;51.956;5.902;2023-04-25T04:42:44;18.60;50.70
38464;DHT22;24243;51.956;5.902;2023-04-25T04:45:14;18.70;50.80
38464;DHT22;24243;51.956;5.902;2023-04-25T04:47:40;18.70;50.80
38464;DHT22;24243;51.956;5.902;2023-04-25T04:50:09;18.70;50.80
38464;DHT22;24243;51.956;5.902;2023-04-25T04:52:36;18.60;50.80
38464;DHT22;24243;51.956;5.902;2023-04-25T04:55:03;18.60;50.80
38464;DHT22;24243;51.956;5.902;2023-04-25T04:57:29;18.60;50.70
38464;DHT22;24243;51.956;5.902;2023-04-25T04:59:55;18.60;50.70
38464;DHT22;24243;51.956;5.902;2023-04-25T05:02:21;18.60;50.70
38464;DHT22;24243;51.956;5.902;2023-04-25T05:04:46;18.60;50.70
38464;DHT22;24243;51.956;5.902;2023-04-25T05:07:12;18.60;50.70
38464;DHT22;24243;51.956;5.902;2023-04-25T05:09:38;18.60;50.70
38464;DHT22;24243;51.956;5.902;2023-04-25T05:12:04;18.60;50.70
38464;DHT22;24243;51.956;5.902;2023-04-25T05:14:30;18.60;50.70
38464;DHT22;24243;51.956;5.902;2023-04-25T05:16:56;18.60;50.70
38464;DHT22;24243;51.956;5.902;2023-04-25T05:19:21;18.60;50.80
38464;DHT22;24243;51.956;5.902;2023-04-25T05:21:47;18.60;50.70
38464;DHT22;24243;51.956;5.902;2023-04-25T05:24:13;18.60;50.70
38464;DHT22;24243;51.956;5.902;2023-04-25T05:26:38;18.60;50.70
38464;DHT22;24243;51.956;5.902;2023-04-25T05:29:04;18.60;50.70
38464;DHT22;24243;51.956;5.902;2023-04-25T05:31:31;18.60;50.70
38464;DHT22;24243;51.956;5.902;2023-04-25T05:33:57;18.60;50.80
38464;DHT22;24243;51.956;5.902;2023-04-25T05:36:23;18.60;50.70
38464;DHT22;24243;51.956;5.902;2023-04-25T05:38:48;18.60;51.30
38464;DHT22;24243;51.956;5.902;2023-04-25T05:41:14;18.60;51.30
38464;DHT22;24243;51.956;5.902;2023-04-25T05:43:40;18.60;50.70
38464;DHT22;24243;51.956;5.902;2023-04-25T05:46:11;18.60;50.70
38464;DHT22;24243;51.956;5.902;2023-04-25T05:48:37;18.60;50.60
38464;DHT22;24243;51.956;5.902;2023-04-25T05:51:03;18.60;50.60
38464;DHT22;24243;51.956;5.902;2023-04-25T05:53:29;18.70;50.70
38464;DHT22;24243;51.956;5.902;2023-04-25T05:55:55;18.70;50.60
38464;DHT22;24243;51.956;5.902;2023-04-25T05:58:20;18.70;50.60
38464;DHT22;24243;51.956;5.902;2023-04-25T06:00:46;18.70;50.50
38464;DHT22;24243;51.956;5.902;2023-04-25T06:03:12;18.80;50.40
38464;DHT22;24243;51.956;5.902;2023-04-25T06:05:41;18.90;50.30
38464;DHT22;24243;51.956;5.902;2023-04-25T06:08:08;18.90;50.20
38464;DHT22;24243;51.956;5.902;2023-04-25T06:10:33;18.90;50.20
38464;DHT22;24243;51.956;5.902;2023-04-25T06:12:59;18.90;50.20
38464;DHT22;24243;51.956;5.902;2023-04-25T06:15:25;18.90;50.10
38464;DHT22;24243;51.956;5.902;2023-04-25T06:17:51;18.90;50.10
38464;DHT22;24243;51.956;5.902;2023-04-25T06:20:17;19.00;50.00
38464;DHT22;24243;51.956;5.902;2023-04-25T06:22:42;19.00;49.90
38464;DHT22;24243;51.956;5.902;2023-04-25T06:25:08;19.00;49.90
38464;DHT22;24243;51.956;5.902;2023-04-25T06:27:34;19.00;49.90
38464;DHT22;24243;51.956;5.902;2023-04-25T06:30:00;19.00;49.80
38464;DHT22;24243;51.956;5.902;2023-04-25T06:32:25;19.00;49.80
38464;DHT22;24243;51.956;5.902;2023-04-25T06:34:53;19.10;49.80
38464;DHT22;24243;51.956;5.902;2023-04-25T06:37:20;19.10;49.60
38464;DHT22;24243;51.956;5.902;2023-04-25T06:39:45;19.20;49.60
38464;DHT22;24243;51.956;5.902;2023-04-25T06:42:11;19.20;49.30
38464;DHT22;24243;51.956;5.902;2023-04-25T06:44:36;19.30;49.20
38464;DHT22;24243;51.956;5.902;2023-04-25T06:47:02;19.40;49.10
38464;DHT22;24243;51.956;5.902;2023-04-25T06:49:28;19.40;49.00
38464;DHT22;24243;51.956;5.902;2023-04-25T06:51:54;19.40;49.00
38464;DHT22;24243;51.956;5.902;2023-04-25T06:54:19;19.40;49.00
38464;DHT22;24243;51.956;5.902;2023-04-25T06:56:45;19.40;49.00
38464;DHT22;24243;51.956;5.902;2023-04-25T06:59:11;19.40;49.00
38464;DHT22;24243;51.956;5.902;2023-04-25T07:01:37;19.40;48.90
38464;DHT22;24243;51.956;5.902;2023-04-25T07:04:03;19.50;48.80
38464;DHT22;24243;51.956;5.902;2023-04-25T07:06:28;19.50;48.70
38464;DHT22;24243;51.956;5.902;2023-04-25T07:08:54;19.50;48.70
38464;DHT22;24243;51.956;5.902;2023-04-25T07:11:21;19.50;48.80
38464;DHT22;24243;51.956;5.902;2023-04-25T07:13:46;19.40;49.40
38464;DHT22;24243;51.956;5.902;2023-04-25T07:16:12;19.40;48.80
38464;DHT22;24243;51.956;5.902;2023-04-25T07:18:38;19.40;48.90
38464;DHT22;24243;51.956;5.902;2023-04-25T07:21:03;19.40;48.90
38464;DHT22;24243;51.956;5.902;2023-04-25T07:23:29;19.50;48.80
38464;DHT22;24243;51.956;5.902;2023-04-25T07:25:55;19.70;48.60
38464;DHT22;24243;51.956;5.902;2023-04-25T07:28:21;19.80;48.20
38464;DHT22;24243;51.956;5.902;2023-04-25T07:30:47;19.90;48.00
38464;DHT22;24243;51.956;5.902;2023-04-25T07:33:13;20.20;47.80
38464;DHT22;24243;51.956;5.902;2023-04-25T07:35:38;20.40;47.40
38464;DHT22;24243;51.956;5.902;2023-04-25T07:38:04;20.70;46.90
38464;DHT22;24243;51.956;5.902;2023-04-25T07:40:32;21.20;46.20
38464;DHT22;24243;51.956;5.902;2023-04-25T07:42:57;21.80;45.20
38464;DHT22;24243;51.956;5.902;2023-04-25T07:45:23;22.20;44.40
38464;DHT22;24243;51.956;5.902;2023-04-25T07:47:49;22.50;43.80
38464;DHT22;24243;51.956;5.902;2023-04-25T07:50:15;22.50;43.60
38464;DHT22;24243;51.956;5.902;2023-04-25T07:52:41;22.70;43.50
38464;DHT22;24243;51.956;5.902;2023-04-25T07:55:07;22.70;43.20
38464;DHT22;24243;51.956;5.902;2023-04-25T07:57:32;22.80;43.30
38464;DHT22;24243;51.956;5.902;2023-04-25T07:59:58;22.90;43.20
38464;DHT22;24243;51.956;5.902;2023-04-25T08:02:24;22.80;43.30
38464;DHT22;24243;51.956;5.902;2023-04-25T08:04:53;22.80;43.40
38464;DHT22;24243;51.956;5.902;2023-04-25T08:07:19;22.80;43.50
38464;DHT22;24243;51.956;5.902;2023-04-25T08:09:45;22.90;43.50
38464;DHT22;24243;51.956;5.902;2023-04-25T08:12:10;23.10;43.10
38464;DHT22;24243;51.956;5.902;2023-04-25T08:14:36;23.10;42.90
38464;DHT22;24243;51.956;5.902;2023-04-25T08:17:03;22.90;42.90
38464;DHT22;24243;51.956;5.902;2023-04-25T08:19:29;22.90;43.20
38464;DHT22;24243;51.956;5.902;2023-04-25T08:21:56;23.30;43.00
38464;DHT22;24243;51.956;5.902;2023-04-25T08:24:22;23.80;42.30
38464;DHT22;24243;51.956;5.902;2023-04-25T08:26:48;24.30;41.40
38464;DHT22;24243;51.956;5.902;2023-04-25T08:29:14;24.70;40.50
38464;DHT22;24243;51.956;5.902;2023-04-25T08:31:40;25.10;39.90
38464;DHT22;24243;51.956;5.902;2023-04-25T08:34:06;25.40;39.50
38464;DHT22;24243;51.956;5.902;2023-04-25T08:36:32;25.40;39.20
38464;DHT22;24243;51.956;5.902;2023-04-25T08:38:58;25.20;39.40
38464;DHT22;24243;51.956;5.902;2023-04-25T08:41:24;25.20;39.50
38464;DHT22;24243;51.956;5.902;2023-04-25T08:43:51;25.20;39.60
38464;DHT22;24243;51.956;5.902;2023-04-25T08:46:19;25.00;39.70
38464;DHT22;24243;51.956;5.902;2023-04-25T08:48:46;24.70;40.20
38464;DHT22;24243;51.956;5.902;2023-04-25T08:51:22;24.30;40.80
38464;DHT22;24243;51.956;5.902;2023-04-25T08:53:51;23.90;42.20
38464;DHT22;24243;51.956;5.902;2023-04-25T08:56:18;23.50;42.30
38464;DHT22;24243;51.956;5.902;2023-04-25T08:58:48;23.10;42.80
38464;DHT22;24243;51.956;5.902;2023-04-25T09:01:13;22.80;43.30
38464;DHT22;24243;51.956;5.902;2023-04-25T09:03:39;22.60;43.80
38464;DHT22;24243;51.956;5.902;2023-04-25T09:06:05;22.40;44.10
38464;DHT22;24243;51.956;5.902;2023-04-25T09:08:31;22.20;44.30
38464;DHT22;24243;51.956;5.902;2023-04-25T09:10:57;22.00;44.60
38464;DHT22;24243;51.956;5.902;2023-04-25T09:13:27;21.90;44.80
38464;DHT22;24243;51.956;5.902;2023-04-25T09:15:55;21.80;44.90
38464;DHT22;24243;51.956;5.902;2023-04-25T09:18:28;21.60;45.00
38464;DHT22;24243;51.956;5.902;2023-04-25T09:20:55;21.60;45.20
38464;DHT22;24243;51.956;5.902;2023-04-25T09:23:22;21.40;45.30
38464;DHT22;24243;51.956;5.902;2023-04-25T09:25:52;21.40;45.50
38464;DHT22;24243;51.956;5.902;2023-04-25T09:28:25;21.30;45.50
38464;DHT22;24243;51.956;5.902;2023-04-25T09:30:56;21.20;45.50
38464;DHT22;24243;51.956;5.902;2023-04-25T09:33:28;21.20;45.60
38464;DHT22;24243;51.956;5.902;2023-04-25T09:36:05;21.10;45.60
38464;DHT22;24243;51.956;5.902;2023-04-25T09:38:32;21.10;45.60
38464;DHT22;24243;51.956;5.902;2023-04-25T09:40:59;21.10;45.70
38464;DHT22;24243;51.956;5.902;2023-04-25T09:43:26;21.00;45.70
38464;DHT22;24243;51.956;5.902;2023-04-25T09:45:54;21.00;45.70
38464;DHT22;24243;51.956;5.902;2023-04-25T09:48:24;21.00;45.80
38464;DHT22;24243;51.956;5.902;2023-04-25T09:51:12;21.00;45.80
38464;DHT22;24243;51.956;5.902;2023-04-25T09:53:46;21.00;45.70
38464;DHT22;24243;51.956;5.902;2023-04-25T09:56:12;21.10;45.70
38464;DHT22;24243;51.956;5.902;2023-04-25T09:58:39;21.10;45.60
38464;DHT22;24243;51.956;5.902;2023-04-25T10:01:07;21.20;45.60
38464;DHT22;24243;51.956;5.902;2023-04-25T10:03:35;21.20;45.50
38464;DHT22;24243;51.956;5.902;2023-04-25T10:06:03;21.30;45.50
38464;DHT22;24243;51.956;5.902;2023-04-25T10:08:32;21.30;45.40
38464;DHT22;24243;51.956;5.902;2023-04-25T10:11:03;21.40;45.40
38464;DHT22;24243;51.956;5.902;2023-04-25T10:13:30;21.40;45.40
38464;DHT22;24243;51.956;5.902;2023-04-25T10:16:00;21.50;45.40
38464;DHT22;24243;51.956;5.902;2023-04-25T10:18:27;21.50;45.30
38464;DHT22;24243;51.956;5.902;2023-04-25T10:20:58;21.50;45.30
38464;DHT22;24243;51.956;5.902;2023-04-25T10:23:25;21.50;45.30
38464;DHT22;24243;51.956;5.902;2023-04-25T10:25:52;21.40;45.50
38464;DHT22;24243;51.956;5.902;2023-04-25T10:28:18;21.40;45.60
38464;DHT22;24243;51.956;5.902;2023-04-25T10:33:33;21.30;45.70
38464;DHT22;24243;51.956;5.902;2023-04-25T10:36:09;21.30;45.90
38464;DHT22;24243;51.956;5.902;2023-04-25T10:38:36;21.30;45.90
38464;DHT22;24243;51.956;5.902;2023-04-25T10:41:07;21.30;45.90
38464;DHT22;24243;51.956;5.902;2023-04-25T10:43:44;21.30;45.80
38464;DHT22;24243;51.956;5.902;2023-04-25T10:46:24;21.30;45.80
38464;DHT22;24243;51.956;5.902;2023-04-25T10:48:55;21.20;45.70
38464;DHT22;24243;51.956;5.902;2023-04-25T10:51:25;21.20;45.80
38464;DHT22;24243;51.956;5.902;2023-04-25T10:58:47;21.10;45.90
38464;DHT22;24243;51.956;5.902;2023-04-25T11:01:14;21.10;45.90
38464;DHT22;24243;51.956;5.902;2023-04-25T11:03:41;21.10;45.90
38464;DHT22;24243;51.956;5.902;2023-04-25T11:06:26;21.20;45.80
38464;DHT22;24243;51.956;5.902;2023-04-25T11:08:53;21.20;45.80
38464;DHT22;24243;51.956;5.902;2023-04-25T11:11:19;21.30;45.80
38464;DHT22;24243;51.956;5.902;2023-04-25T11:13:49;21.30;45.70
38464;DHT22;24243;51.956;5.902;2023-04-25T11:16:16;21.40;45.60
38464;DHT22;24243;51.956;5.902;2023-04-25T11:18:43;21.40;45.60
38464;DHT22;24243;51.956;5.902;2023-04-25T11:21:09;21.50;45.60
38464;DHT22;24243;51.956;5.902;2023-04-25T11:23:35;21.50;45.50
38464;DHT22;24243;51.956;5.902;2023-04-25T11:26:02;21.60;45.50
38464;DHT22;24243;51.956;5.902;2023-04-25T11:28:28;21.60;45.40
38464;DHT22;24243;51.956;5.902;2023-04-25T11:30:54;21.60;45.30
38464;DHT22;24243;51.956;5.902;2023-04-25T11:33:23;21.60;45.40
38464;DHT22;24243;51.956;5.902;2023-04-25T11:35:52;21.60;45.30
38464;DHT22;24243;51.956;5.902;2023-04-25T11:38:18;21.70;45.30
38464;DHT22;24243;51.956;5.902;2023-04-25T11:40:44;21.70;45.40
38464;DHT22;24243;51.956;5.902;2023-04-25T11:43:09;21.70;45.30
38464;DHT22;24243;51.956;5.902;2023-04-25T11:45:37;21.70;45.20
38464;DHT22;24243;51.956;5.902;2023-04-25T11:48:03;21.60;45.20
38464;DHT22;24243;51.956;5.902;2023-04-25T11:50:29;21.70;45.20
38464;DHT22;24243;51.956;5.902;2023-04-25T11:52:56;21.60;45.20
38464;DHT22;24243;51.956;5.902;2023-04-25T11:55:22;21.60;45.10
38464;DHT22;24243;51.956;5.902;2023-04-25T11:57:49;21.60;45.20
38464;DHT22;24243;51.956;5.902;2023-04-25T12:00:19;21.60;45.20
38464;DHT22;24243;51.956;5.902;2023-04-25T12:02:48;21.70;45.20
38464;DHT22;24243;51.956;5.902;2023-04-25T12:05:16;21.70;45.20
38464;DHT22;24243;51.956;5.902;2023-04-25T12:07:42;21.60;45.10
38464;DHT22;24243;51.956;5.902;2023-04-25T12:10:16;21.60;45.20
38464;DHT22;24243;51.956;5.902;2023-04-25T12:12:44;21.60;45.20
38464;DHT22;24243;51.956;5.902;2023-04-25T12:15:23;21.50;45.20
38464;DHT22;24243;51.956;5.902;2023-04-25T12:17:51;21.50;45.20
38464;DHT22;24243;51.956;5.902;2023-04-25T12:20:35;21.40;45.20
38464;DHT22;24243;51.956;5.902;2023-04-25T12:23:05;21.40;45.10
38464;DHT22;24243;51.956;5.902;2023-04-25T12:25:43;21.40;45.20
38464;DHT22;24243;51.956;5.902;2023-04-25T12:28:21;21.30;45.10
38464;DHT22;24243;51.956;5.902;2023-04-25T12:31:00;21.20;45.10
38464;DHT22;24243;51.956;5.902;2023-04-25T12:33:29;21.20;45.10
38464;DHT22;24243;51.956;5.902;2023-04-25T12:35:56;21.20;45.20
38464;DHT22;24243;51.956;5.902;2023-04-25T12:38:30;21.10;45.20
38464;DHT22;24243;51.956;5.902;2023-04-25T12:40:57;21.10;45.10
38464;DHT22;24243;51.956;5.902;2023-04-25T12:43:23;21.10;45.20
38464;DHT22;24243;51.956;5.902;2023-04-25T12:45:53;21.00;45.10
38464;DHT22;24243;51.956;5.902;2023-04-25T12:48:20;21.00;45.00
38464;DHT22;24243;51.956;5.902;2023-04-25T12:50:47;21.00;45.00
38464;DHT22;24243;51.956;5.902;2023-04-25T12:53:18;21.00;45.10
38464;DHT22;24243;51.956;5.902;2023-04-25T12:55:45;21.00;45.00
38464;DHT22;24243;51.956;5.902;2023-04-25T12:58:17;21.00;45.10
38464;DHT22;24243;51.956;5.902;2023-04-25T13:00:43;20.90;45.00
38464;DHT22;24243;51.956;5.902;2023-04-25T13:03:10;21.00;45.10
38464;DHT22;24243;51.956;5.902;2023-04-25T13:05:37;20.90;45.00
38464;DHT22;24243;51.956;5.902;2023-04-25T13:08:03;20.90;45.00
38464;DHT22;24243;51.956;5.902;2023-04-25T13:10:29;20.90;45.10
38464;DHT22;24243;51.956;5.902;2023-04-25T13:12:55;20.90;45.00
38464;DHT22;24243;51.956;5.902;2023-04-25T13:15:21;21.00;45.00
38464;DHT22;24243;51.956;5.902;2023-04-25T13:17:47;21.00;45.00
38464;DHT22;24243;51.956;5.902;2023-04-25T13:20:13;21.00;45.00
38464;DHT22;24243;51.956;5.902;2023-04-25T13:22:40;21.00;45.00
38464;DHT22;24243;51.956;5.902;2023-04-25T13:25:07;21.00;45.00
38464;DHT22;24243;51.956;5.902;2023-04-25T13:27:34;21.00;44.90
38464;DHT22;24243;51.956;5.902;2023-04-25T13:30:01;20.90;44.90
38464;DHT22;24243;51.956;5.902;2023-04-25T13:32:30;20.90;44.90
38464;DHT22;24243;51.956;5.902;2023-04-25T13:34:55;20.90;44.90
38464;DHT22;24243;51.956;5.902;2023-04-25T13:37:21;20.90;44.80
38464;DHT22;24243;51.956;5.902;2023-04-25T13:39:49;20.80;44.50
38464;DHT22;24243;51.956;5.902;2023-04-25T13:42:15;20.80;44.20
38464;DHT22;24243;51.956;5.902;2023-04-25T13:44:41;20.80;43.80
38464;DHT22;24243;51.956;5.902;2023-04-25T13:47:07;20.80;43.30
38464;DHT22;24243;51.956;5.902;2023-04-25T13:49:32;20.70;43.00
38464;DHT22;24243;51.956;5.902;2023-04-25T13:51:58;20.70;42.80
38464;DHT22;24243;51.956;5.902;2023-04-25T13:54:24;20.60;42.40
38464;DHT22;24243;51.956;5.902;2023-04-25T13:56:49;20.60;42.10
38464;DHT22;24243;51.956;5.902;2023-04-25T13:59:15;20.50;41.60
38464;DHT22;24243;51.956;5.902;2023-04-25T14:01:41;20.50;41.40
38464;DHT22;24243;51.956;5.902;2023-04-25T14:04:07;20.40;41.70
38464;DHT22;24243;51.956;5.902;2023-04-25T14:06:32;20.40;40.80
38464;DHT22;24243;51.956;5.902;2023-04-25T14:08:58;20.30;40.60
38464;DHT22;24243;51.956;5.902;2023-04-25T14:11:26;20.30;40.30
38464;DHT22;24243;51.956;5.902;2023-04-25T14:13:52;20.20;40.20
38464;DHT22;24243;51.956;5.902;2023-04-25T14:16:17;20.20;40.10
38464;DHT22;24243;51.956;5.902;2023-04-25T14:18:43;20.20;39.90
38464;DHT22;24243;51.956;5.902;2023-04-25T14:21:09;20.20;39.80
38464;DHT22;24243;51.956;5.902;2023-04-25T14:23:35;20.10;39.60
38464;DHT22;24243;51.956;5.902;2023-04-25T14:26:01;20.10;39.50
38464;DHT22;24243;51.956;5.902;2023-04-25T14:28:27;20.00;39.50
38464;DHT22;24243;51.956;5.902;2023-04-25T14:30:53;20.00;39.50
38464;DHT22;24243;51.956;5.902;2023-04-25T14:33:18;20.00;39.50
38464;DHT22;24243;51.956;5.902;2023-04-25T14:35:44;19.90;39.50
38464;DHT22;24243;51.956;5.902;2023-04-25T14:38:10;20.00;39.50
38464;DHT22;24243;51.956;5.902;2023-04-25T14:40:35;20.00;39.50
38464;DHT22;24243;51.956;5.902;2023-04-25T14:43:03;20.00;39.50
38464;DHT22;24243;51.956;5.902;2023-04-25T14:45:28;19.90;39.30
38464;DHT22;24243;51.956;5.902;2023-04-25T14:47:54;19.90;39.40
38464;DHT22;24243;51.956;5.902;2023-04-25T14:50:20;19.90;39.30
38464;DHT22;24243;51.956;5.902;2023-04-25T14:52:46;19.90;39.30
38464;DHT22;24243;51.956;5.902;2023-04-25T14:55:11;19.90;39.30
38464;DHT22;24243;51.956;5.902;2023-04-25T14:57:37;19.90;39.30
38464;DHT22;24243;51.956;5.902;2023-04-25T15:00:05;19.90;39.30
38464;DHT22;24243;51.956;5.902;2023-04-25T15:02:35;19.80;39.30
38464;DHT22;24243;51.956;5.902;2023-04-25T15:05:00;19.90;39.40
38464;DHT22;24243;51.956;5.902;2023-04-25T15:07:26;19.90;39.50
38464;DHT22;24243;51.956;5.902;2023-04-25T15:09:52;19.90;39.40
38464;DHT22;24243;51.956;5.902;2023-04-25T15:12:18;19.90;39.30
38464;DHT22;24243;51.956;5.902;2023-04-25T15:14:45;19.90;39.30
38464;DHT22;24243;51.956;5.902;2023-04-25T15:17:10;19.90;39.20
38464;DHT22;24243;51.956;5.902;2023-04-25T15:19:39;19.90;39.20
38464;DHT22;24243;51.956;5.902;2023-04-25T15:22:05;19.90;39.10
38464;DHT22;24243;51.956;5.902;2023-04-25T15:24:32;19.90;39.00
38464;DHT22;24243;51.956;5.902;2023-04-25T15:26:58;19.90;38.90
38464;DHT22;24243;51.956;5.902;2023-04-25T15:29:23;19.90;38.90
38464;DHT22;24243;51.956;5.902;2023-04-25T15:31:50;19.90;38.80
38464;DHT22;24243;51.956;5.902;2023-04-25T15:34:15;19.90;38.80
38464;DHT22;24243;51.956;5.902;2023-04-25T15:36:41;19.90;38.70